메인 페이지
METAR-TAF:

METAR-TAF

공항 :

수쿠르, 파키스탄

위도: 27-43-19N, 경도: 068-47-31E, 고도: 60m

현재 날씨관측

예보는 51분 전, 23:00시(UTC)에 발표되었습니다.
무풍
온도 7°C
습도 87%
기압 1014 hPa
시정: 1000m
박무

METAR: OPSK 192300Z 00000KT 1000 BR NSC 07/05 Q1014 TEMPO 1000 BR

시각: 04:51 (23:51 UTC)

예보

예보는 2 시간 21분 전, 21:30시(UTC)에 발표되었습니다.
예보 대상 시간: 20일 00시부터 20일 24시까지 (UTC)
6kt
시정: 4000m
연무
일시적
20일 00시부터 20일 04시까지 (UTC)
kt
시정: 0600m
안개
전환 중
20일 18시부터 20일 20시까지 (UTC)
여러 방향의 바람 3kt
시정: 1200m
박무

TAF: OPSK 192130Z 2000/2024 36006KT 4000 HZ NSC TEMPO 2000/2004 00000KT 0600 FG VV/// BECMG 2018/2020 VRB03KT 1200 BR NSC

4,000개 이상의 공항 관측 자료 및 예보 (METAR 및 TAF 보고).

지도상에서 검색 가능한 기상관측소가 노란 점과 빨간 점으로 표시되어 있습니다.

기상관측소 명을 보려면 표시 위로 마우스를 이동하세요.

날씨 관측과 예보를 보려면 클릭하세요.

지도 변경 : 확대하려면 엑스 표시가 있는 녹색 버튼, 축소하려면 빼기 표시가 있는 녹색 버튼, 다음 페이지의 지도를 보려면 녹색 화살표를 클릭하세요.


METAR-TAF: